Tiempo atmosférico en la estación meteorológica de Son Servera, Illes Balears (28 m.)



Fecha
DESCASC
Temp. máxima en grados centígrados (hora)
DESCASC
Temp. mínima en grados centígrados (hora)
DESCASC
Temp. media en grados centígrados
DESCASC
Racha de viento máxima en m/sg (hora)
DESCASC
Velocidad máxima media en intervalos de 10 minutos(hora)
DESCASC
Precipitaciones diarias en mm
DESCASC
Precipitaciones de 00:00 a 06:00 en mm
DESCASC
Precipitaciones de 06:00 a 12:00 en mm
DESCASC
Precipitaciones de 12:00 a 18:00 en mm
DESCASC
Precipitaciones de 18:00 a 24:00 en mm
DESCASC
04-03-2021 16.7 (13:00) 9.2 (23:50) 13 7.5 (03:30) 4.17 (10:30) 0 0 0 0 0
03-03-2021 17.5 (11:50) 13.2 (05:00) 15.3 9.17 (12:00) 5.83 (12:00) 0 0 0 0 0
02-03-2021 15.6 (12:50) 13.9 (23:30) 14.8 11.67 (00:40) 5.83 (00:40) 0 0 0 0 0
01-03-2021 15.9 (11:40) 13.3 (07:10) 14.6 10.28 (23:10) 5.56 (10:30) 0 0 0 0 0
28-02-2021 17.2 (13:30) 6.8 (00:00) 12 8.61 (23:00) 4.72 (21:40) 0 0 0 0 0
27-02-2021 16.8 (14:50) 5.2 (00:00) 11 8.06 (13:10) 5 (12:10) 0.2 0 0.2 0 0
26-02-2021 16.7 (13:40) 7.3 (00:00) 12 6.11 (16:20) 4.17 (16:10) 0 0 0 0 0
25-02-2021 16.8 (11:30) 6.9 (00:00) 11.8 5.83 (13:40) 3.33 (12:50) 0 0 0 0 0
24-02-2021 17.7 (14:00) 8.8 (00:00) 13.3 6.94 (12:40) 4.44 (13:10) 0 0 0 0 0
23-02-2021 17.8 (13:00) 11.7 (00:00) 14.7 6.11 (14:30) 3.89 (16:30) 0 0 0 0 0
22-02-2021 16.5 (00:40) 12.4 (00:00) 14.4 10.83 (05:20) 5.28 (05:20) 0 0 0 0 0
21-02-2021 16.9 (12:50) 13.5 (00:00) 15.2 8.33 (20:20) 3.89 (13:00) 0 0 0 0 0
20-02-2021 16.5 (13:50) 8.7 (00:00) 12.6 5.83 (12:50) 3.33 (12:40) 0 0 0 0 0
19-02-2021 16 (13:10) 6.1 (00:00) 11 5.56 (13:40) 3.61 (13:50) 0 0 0 0 0
18-02-2021 16.7 (13:50) 7.5 (00:00) 12.1 5.83 (13:00) 3.61 (13:00) 0 0 0 0 0
17-02-2021 16.3 (15:00) 5.5 (00:00) 10.9 6.67 (15:20) 3.89 (15:40) 0 0 0 0 0
16-02-2021 14.8 (13:20) 3.2 (00:00) 9 8.61 (14:00) 5 (13:40) 0 0 0 0 0
15-02-2021 12.5 (13:50) 3.8 (00:00) 8.1 5.56 (12:10) 3.06 (00:40) 0 0 0 0 0
14-02-2021 12.1 (01:40) 3.8 (00:00) 8 7.5 (11:10) 4.17 (12:00) 0.2 0.2 0 0 0
13-02-2021 15.5 (12:40) 10.3 (00:00) 12.9 6.67 (07:00) 3.89 (13:10) 0 0 0 0 0
12-02-2021 17.5 (11:10) 7.4 (00:00) 12.5 10.28 (18:20) 6.39 (17:20) 1.6 0 0 0 1.6
11-02-2021 22.8 (14:10) 4.1 (00:00) 13.4 7.5 (14:30) 4.17 (12:20) 0 0 0 0 0
10-02-2021 19.1 (13:50) 6.7 (00:00) 12.9 20.28 (10:40) 11.67 (11:30) 0 0 0 0 0
09-02-2021 18.3 (13:00) 10.9 (00:00) 14.6 16.67 (13:10) 8.89 (13:40) 0.2 0 0 0 0.2
08-02-2021 16.2 (12:00) 5.8 (00:00) 11 18.61 (11:30) 10.83 (11:30) 0.2 0 0 0.2 0
07-02-2021 17.4 (11:30) 4.7 (00:00) 11 10.83 (00:10) 6.67 (00:10) 0 0 0 0 0
06-02-2021 20.9 (02:20) 12.8 (00:00) 16.8 13.33 (05:40) 7.5 (05:40) 0 0 0 0 0
05-02-2021 20.5 (12:30) 8.7 (00:00) 14.6 5.83 (11:40) 2.78 (15:30) 0 0 0 0 0
04-02-2021 17.7 (13:40) 8.1 (00:00) 12.9 4.17 (15:40) 2.5 (14:10) 0 0 0 0 0

Gráficas

Temp. máximas Temp. mínimas Temp. medias Precipitaciones Rachas de viento máximas Velocidades máximas media en intervalos de 10 minutos

Datos horarios

Fecha y hora oficial Temperatura (ºC) Velocidad del viento (km/h) Dirección del viento Racha (km/h) Dirección de racha Precipitación (mm) Presión (hPa) Tendencia (hPa) Humedad (%)
2021-03-05 23:00:00 8.4 6 Noroeste 13 Oeste 0 -- -- 87
2021-03-05 22:00:00 8.9 8 Noroeste 12 Noroeste 0 -- -- 85
2021-03-05 21:00:00 9.5 8 Noroeste 12 Oeste 0 -- -- 81
2021-03-05 20:00:00 10.7 6 Noroeste 9 Noroeste 0 -- -- 75
2021-03-05 19:00:00 12.4 3 Noroeste 12 Norte 0 -- -- 71
2021-03-05 18:00:00 14.5 8 Norte 17 Norte 0 -- -- 62
2021-03-05 17:00:00 16.2 13 Nordeste 22 Norte 0 -- -- 57
2021-03-05 16:00:00 17.1 11 Este 22 Este 0 -- -- 53
2021-03-05 15:00:00 17.2 13 Este 23 Este 0 -- -- 48
2021-03-05 14:00:00 17 17 Sudeste 24 Sudeste 0 -- -- 51
2021-03-05 13:00:00 17.5 13 Sudeste 22 Este 0 -- -- 50
2021-03-05 12:00:00 17.4 13 Este 21 Sudeste 0 -- -- 51
2021-03-05 11:00:00 17.4 8 Norte 17 Nordeste 0 -- -- 62
2021-03-05 10:00:00 15.3 9 Nordeste 15 Nordeste 0 -- -- 71
2021-03-05 09:00:00 14.6 5 Noroeste 9 Oeste 0 -- -- 90
2021-03-05 08:00:00 8.7 5 Noroeste 12 Noroeste 0 -- -- 97
2021-03-05 07:00:00 7.2 8 Noroeste 12 Oeste 0 -- -- 97
2021-03-05 06:00:00 7.4 8 Noroeste 11 Noroeste 0 -- -- 96
2021-03-05 05:00:00 7.7 8 Noroeste 10 Noroeste 0 -- -- 95
2021-03-05 04:00:00 8 8 Noroeste 12 Noroeste 0 -- -- 95
2021-03-05 03:00:00 8.1 8 Noroeste 10 Oeste 0 -- -- 94
2021-03-05 02:00:00 8.2 8 Noroeste 12 Noroeste 0 -- -- 93
2021-03-05 01:00:00 8.6 7 Noroeste 10 Noroeste 0 -- -- 92
2021-03-05 00:00:00 9.2 6 Noroeste 9 Noroeste 0 -- -- 90
2021-03-04 23:00:00 10.2 6 Noroeste 9 Noroeste 0 -- -- 87
2021-03-04 22:00:00 12.4 2 Nordeste 12 Este 0 -- -- 82
2021-03-04 21:00:00 13.3 4 Este 14 Este 0 -- -- 82
2021-03-04 20:00:00 13.5 5 Este 15 Este 0 -- -- 83
2021-03-04 19:00:00 13.8 7 Este 14 Este 0 -- -- 82
2021-03-04 18:00:00 14.1 8 Este 19 Este 0 -- -- 79
2021-03-04 17:00:00 14.8 9 Este 18 Sudeste 0 -- -- 75
2021-03-04 16:00:00 15.5 13 Sudeste 23 Sudeste 0 -- -- 73
2021-03-04 15:00:00 15.9 13 Sudeste 24 Sudeste 0 -- -- 71
2021-03-04 14:00:00 16.1 13 Sudeste 25 Este 0 -- -- 71
2021-03-04 13:00:00 16.7 13 Sudeste 24 Este 0 -- -- 71
2021-03-04 12:00:00 15.3 14 Este 25 Este 0 -- -- 76
2021-03-04 11:00:00 14.8 15 Este 25 Este 0 -- -- 79
2021-03-04 10:00:00 15 14 Este 26 Este 0 -- -- 78
2021-03-04 09:00:00 14.5 12 Este 24 Este 0 -- -- 80
2021-03-04 08:00:00 13.8 12 Este 24 Este 0 -- -- 82
2021-03-04 07:00:00 13.5 9 Este 22 Este 0 -- -- 81
2021-03-04 06:00:00 13.5 10 Este 23 Este 0 -- -- 80
2021-03-04 05:00:00 13.7 11 Este 23 Este 0 -- -- 82
2021-03-04 04:00:00 13.5 7 Este 27 Este 0 -- -- 83
2021-03-04 03:00:00 13.6 10 Este 21 Este 0 -- -- 83
2021-03-04 02:00:00 13.4 9 Este 22 Este 0 -- -- 81
2021-03-04 01:00:00 13.7 12 Este 23 Este 0 -- -- 80
2021-03-04 00:00:00 13.7 13 Este 22 Este 0 -- -- 80
2021-03-03 23:00:00 13.8 10 Este 23 Este 0 -- -- 81
2021-03-03 22:00:00 13.7 11 Este 25 Este 0 -- -- 81
2021-03-03 21:00:00 13.7 9 Este 24 Este 0 -- -- 83
2021-03-03 20:00:00 13.6 9 Este 24 Este 0 -- -- 81
2021-03-03 19:00:00 13.9 9 Este 24 Este 0 -- -- 83
2021-03-03 18:00:00 14.4 12 Este 26 Este 0 -- -- 80
2021-03-03 17:00:00 15.7 13 Este 28 Este 0 -- -- 76
2021-03-03 16:00:00 16 14 Este 26 Este 0 -- -- 75
2021-03-03 15:00:00 16.9 16 Este 30 Este 0 -- -- 72
2021-03-03 14:00:00 17.3 17 Este 30 Este 0 -- -- 73
2021-03-03 13:00:00 17.5 17 Este 32 Este 0 -- -- 71
2021-03-03 12:00:00 16.8 21 Este 33 Este 0 -- -- 72
2021-03-03 11:00:00 17.1 15 Este 28 Este 0 -- -- 74
2021-03-03 10:00:00 15.7 17 Este 29 Este 0 -- -- 80
2021-03-03 09:00:00 14.8 11 Este 24 Nordeste 0 -- -- 83
2021-03-03 08:00:00 13.5 8 Nordeste 21 Nordeste 0 -- -- 86
2021-03-03 07:00:00 13.6 11 Este 23 Este 0 -- -- 85
2021-03-03 06:00:00 13.6 12 Este 22 Nordeste 0 -- -- 84
2021-03-03 05:00:00 13.2 12 Este 27 Nordeste 0 -- -- 86
2021-03-03 04:00:00 13.3 15 Nordeste 28 Este 0 -- -- 88
2021-03-03 03:00:00 13.4 13 Este 26 Nordeste 0 -- -- 87
2021-03-03 02:00:00 13.5 12 Este 24 Este 0 -- -- 86
2021-03-03 01:00:00 13.7 12 Este 20 Este 0 -- -- 88
2021-03-03 00:00:00 13.9 13 Este 25 Este 0 -- -- 88
2021-03-02 23:00:00 14 10 Este 24 Este 0 -- -- 88
2021-03-02 22:00:00 14 12 Este 24 Nordeste 0 -- -- 87
2021-03-02 21:00:00 14.2 12 Este 26 Este 0 -- -- 87
2021-03-02 20:00:00 14.2 14 Este 27 Este 0 -- -- 87
2021-03-02 19:00:00 14.3 14 Este 27 Este 0 -- -- 87
2021-03-02 18:00:00 14.5 13 Este 23 Este 0 -- -- 86
2021-03-02 17:00:00 14.9 10 Este 24 Este 0 -- -- 85
2021-03-02 16:00:00 15.3 13 Este 26 Este 0 -- -- 84
2021-03-02 15:00:00 15.3 12 Este 26 Este 0 -- -- 83
2021-03-02 14:00:00 15.6 14 Este 28 Este 0 -- -- 83
2021-03-02 13:00:00 15.5 14 Este 27 Este 0 -- -- 83
2021-03-02 12:00:00 15.1 15 Este 28 Este 0 -- -- 84
2021-03-02 11:00:00 14.8 9 Este 22 Este 0 -- -- 86
2021-03-02 10:00:00 14.7 12 Este 25 Este 0 -- -- 86
2021-03-02 09:00:00 14.5 12 Este 23 Este 0 -- -- 88
2021-03-02 08:00:00 14.3 11 Este 22 Sudeste 0 -- -- 89
2021-03-02 07:00:00 14.4 13 Este 23 Este 0 -- -- 88
2021-03-02 06:00:00 14.3 11 Este 32 Este 0 -- -- 87
2021-03-02 05:00:00 14.2 13 Este 28 Este 0 -- -- 87
2021-03-02 04:00:00 14.3 13 Este 32 Este 0 -- -- 86
2021-03-02 03:00:00 14.2 14 Este 29 Sudeste 0 -- -- 86
2021-03-02 02:00:00 14.2 14 Este 37 Este 0 -- -- 86
2021-03-02 01:00:00 14.2 14 Este 42 Este 0 -- -- 86
2021-03-02 00:00:00 14.1 18 Este 37 Este 0 -- -- 86
2021-03-01 23:00:00 14.2 11 Este 35 Este 0 -- -- 85
2021-03-01 22:00:00 14.1 12 Este 31 Este 0 -- -- 85
2021-03-01 21:00:00 14.1 15 Este 32 Este 0 -- -- 83
2021-03-01 20:00:00 14.1 16 Este 28 Este 0 -- -- 82
2021-03-01 19:00:00 14.1 13 Este 31 Este 0 -- -- 81
2021-03-01 18:00:00 14.2 12 Este 29 Este 0 -- -- 80
2021-03-01 17:00:00 14.5 17 Este 29 Este 0 -- -- 78
2021-03-01 16:00:00 14.8 15 Este 28 Este 0 -- -- 77
2021-03-01 15:00:00 15 15 Este 30 Este 0 -- -- 79
2021-03-01 14:00:00 15.2 17 Este 30 Este 0 -- -- 77
2021-03-01 13:00:00 15 15 Este 30 Este 0 -- -- 72
2021-03-01 12:00:00 15.6 14 Este 29 Este 0 -- -- 68
2021-03-01 11:00:00 15.1 16 Este 36 Este 0 -- -- 68
2021-03-01 10:00:00 14.6 17 Este 30 Este 0 -- -- 73
2021-03-01 09:00:00 13.9 15 Este 32 Este 0 -- -- 78
2021-03-01 08:00:00 13.4 17 Este 35 Nordeste 0 -- -- 77
2021-03-01 07:00:00 13.4 12 Este 28 Este 0 -- -- 75
2021-03-01 06:00:00 13.8 14 Este 24 Este 0 -- -- 75
2021-03-01 05:00:00 13.7 14 Este 27 Sudeste 0 -- -- 71
2021-03-01 04:00:00 13.6 13 Este 25 Este 0 -- -- 69
2021-03-01 03:00:00 13.5 14 Este 26 Este 0 -- -- 68
2021-03-01 02:00:00 13.4 12 Sudeste 27 Este 0 -- -- 69
2021-03-01 01:00:00 13.5 15 Este 29 Sudeste 0 -- -- 69
2021-03-01 00:00:00 13.8 15 Este 28 Este 0 -- -- 70
2021-02-28 23:00:00 13.9 15 Este 31 Este 0 -- -- 69
2021-02-28 22:00:00 13.5 13 Sudeste 30 Este 0 -- -- 73
2021-02-28 21:00:00 13.7 9 Este 22 Este 0 -- -- 78
2021-02-28 20:00:00 13.6 12 Este 24 Este 0 -- -- 75
2021-02-28 19:00:00 13.6 10 Este 24 Este 0 -- -- 72
2021-02-28 18:00:00 13.8 13 Este 24 Sudeste 0 -- -- 73
2021-02-28 17:00:00 14.8 14 Este 24 Este 0 -- -- 71
2021-02-28 16:00:00 15.6 14 Este 24 Este 0 -- -- 70
2021-02-28 15:00:00 16.4 14 Este 27 Este 0 -- -- 66
2021-02-28 14:00:00 16.8 14 Este 26 Este 0 -- -- 68
2021-02-28 13:00:00 16.5 13 Sudeste 25 Sudeste 0 -- -- 65
2021-02-28 12:00:00 16 12 Sudeste 23 Sudeste 0 -- -- 68
2021-02-28 11:00:00 16.3 10 Este 21 Este 0 -- -- 70
2021-02-28 10:00:00 15.3 8 Este 17 Nordeste 0 -- -- 76
2021-02-28 09:00:00 12.9 4 Noroeste 10 Noroeste 0 -- -- 92
2021-02-28 08:00:00 7.7 6 Noroeste 9 Noroeste 0 -- -- 97
2021-02-28 07:00:00 7.2 6 Noroeste 9 Noroeste 0 -- -- 96
2021-02-28 06:00:00 7.5 7 Noroeste 10 Noroeste 0 -- -- 96
2021-02-28 05:00:00 7 6 Noroeste 10 Noroeste 0 -- -- 95
2021-02-28 04:00:00 7.6 8 Noroeste 11 Noroeste 0 -- -- 95
2021-02-28 03:00:00 6.9 8 Noroeste 10 Noroeste 0 -- -- 94
2021-02-28 02:00:00 7.1 7 Noroeste 12 Noroeste 0 -- -- 93
2021-02-28 01:00:00 7.3 9 Noroeste 12 Noroeste 0 -- -- 92
2021-02-28 00:00:00 7.2 8 Noroeste 12 Noroeste 0 -- -- 90
2021-02-27 23:00:00 7.4 6 Noroeste 10 Noroeste 0 -- -- 88
2021-02-27 22:00:00 7.8 8 Noroeste 10 Oeste 0 -- -- 87
2021-02-27 21:00:00 8.5 5 Noroeste 8 Noroeste 0 -- -- 85
2021-02-27 20:00:00 9.8 3 Noroeste 7 Norte 0 -- -- 78
2021-02-27 19:00:00 11.9 5 Norte 14 Nordeste 0 -- -- 73
2021-02-27 18:00:00 13.9 10 Nordeste 19 Nordeste 0 -- -- 64
2021-02-27 17:00:00 15.4 8 Este 20 Nordeste 0 -- -- 62
2021-02-27 16:00:00 15.4 10 Nordeste 22 Nordeste 0 -- -- 65
2021-02-27 15:00:00 16.5 10 Nordeste 19 Nordeste 0 -- -- 64
2021-02-27 14:00:00 16.4 12 Este 29 Norte 0 -- -- 67
2021-02-27 13:00:00 16.3 15 Nordeste 28 Nordeste 0 -- -- 71
2021-02-27 12:00:00 16 14 Nordeste 27 Nordeste 0 -- -- 71
2021-02-27 11:00:00 16 11 Nordeste 24 Nordeste 0 -- -- 75
2021-02-27 10:00:00 14.6 16 Nordeste 26 Nordeste 0 -- -- 81
2021-02-27 09:00:00 12.8 2 Noroeste 10 Oeste 0 -- -- 93
2021-02-27 08:00:00 6.9 9 Noroeste 12 Noroeste 0 -- -- 97
2021-02-27 07:00:00 5.8 9 Noroeste 11 Noroeste 0.2 -- -- 98
2021-02-27 06:00:00 6 6 Noroeste 12 Oeste 0 -- -- 97
2021-02-27 05:00:00 5.5 9 Noroeste 13 Noroeste 0 -- -- 97
2021-02-27 04:00:00 5.6 7 Noroeste 10 Oeste 0 -- -- 96
2021-02-27 03:00:00 6.2 7 Noroeste 10 Noroeste 0 -- -- 96
2021-02-27 02:00:00 6.6 8 Noroeste 11 Noroeste 0 -- -- 96
2021-02-27 01:00:00 6.8 8 Noroeste 10 Noroeste 0 -- -- 95
2021-02-27 00:00:00 7.3 8 Noroeste 10 Noroeste 0 -- -- 94
2021-02-26 23:00:00 8 7 Noroeste 11 Noroeste 0 -- -- 93
2021-02-26 22:00:00 8.2 8 Noroeste 11 Oeste 0 -- -- 92
2021-02-26 21:00:00 9 8 Noroeste 11 Noroeste 0 -- -- 90
2021-02-26 20:00:00 10.2 7 Noroeste 11 Noroeste 0 -- -- 88
2021-02-26 19:00:00 11.6 7 Norte 19 Nordeste 0 -- -- 84
2021-02-26 18:00:00 12.9 12 Nordeste 21 Nordeste 0 -- -- 77
2021-02-26 17:00:00 14.6 12 Nordeste 22 Norte 0 -- -- 72
2021-02-26 16:00:00 15.7 13 Nordeste 21 Nordeste 0 -- -- 68
2021-02-26 15:00:00 16.4 11 Nordeste 20 Nordeste 0 -- -- 64
2021-02-26 14:00:00 16.4 14 Nordeste 21 Nordeste 0 -- -- 64
2021-02-26 13:00:00 16.3 12 Nordeste 20 Norte 0 -- -- 64
2021-02-26 12:00:00 16.1 8 Nordeste 17 Este 0 -- -- 67
2021-02-26 11:00:00 15.3 9 Este 15 Este 0 -- -- 70
2021-02-26 10:00:00 14.1 5 Nordeste 13 Nordeste 0 -- -- 76
2021-02-26 09:00:00 11.5 2 Noroeste 7 Noroeste 0 -- -- 94
2021-02-26 08:00:00 8.8 5 Noroeste 8 Noroeste 0 -- -- 95
2021-02-26 07:00:00 8.3 5 Noroeste 9 Noroeste 0 -- -- 95
2021-02-26 06:00:00 8.1 6 Noroeste 10 Noroeste 0 -- -- 95
2021-02-26 05:00:00 7.8 7 Noroeste 10 Noroeste 0 -- -- 94
2021-02-26 04:00:00 8.3 8 Noroeste 9 Noroeste 0 -- -- 94
2021-02-26 03:00:00 8.6 5 Noroeste 9 Noroeste 0 -- -- 93
2021-02-26 02:00:00 8.7 7 Noroeste 9 Noroeste 0 -- -- 94
2021-02-26 01:00:00 7.9 8 Noroeste 10 Noroeste 0 -- -- 93
2021-02-26 00:00:00 7.7 8 Noroeste 11 Noroeste 0 -- -- 93
2021-02-25 23:00:00 7.7 8 Noroeste 10 Noroeste 0 -- -- 92
2021-02-25 22:00:00 7.5 8 Noroeste 10 Noroeste 0 -- -- 90
2021-02-25 21:00:00 8 7 Noroeste 9 Noroeste 0 -- -- 87
2021-02-25 20:00:00 9.6 6 Noroeste 8 Noroeste 0 -- -- 83
2021-02-25 19:00:00 12.3 5 Sudeste 10 Sudeste 0 -- -- 77
2021-02-25 18:00:00 13.6 8 Sudeste 18 Sudeste 0 -- -- 73
2021-02-25 17:00:00 14.7 10 Sudeste 19 Sudeste 0 -- -- 70
2021-02-25 16:00:00 15.7 9 Sudeste 18 Sudeste 0 -- -- 65
2021-02-25 15:00:00 16 10 Sudeste 18 Sudeste 0 -- -- 63
2021-02-25 14:00:00 16 12 Sudeste 21 Sudeste 0 -- -- 62
2021-02-25 13:00:00 16.2 11 Sudeste 20 Este 0 -- -- 62
2021-02-25 12:00:00 16.4 9 Este 17 Este 0 -- -- 66
2021-02-25 11:00:00 16.3 6 Sudeste 14 Sudeste 0 -- -- 67
2021-02-25 10:00:00 15.6 6 Sudeste 10 Este 0 -- -- 70
2021-02-25 09:00:00 14.5 4 Noroeste 10 Noroeste 0 -- -- 91
2021-02-25 08:00:00 7.6 8 Noroeste 11 Noroeste 0 -- -- 97
2021-02-25 07:00:00 7.1 8 Noroeste 11 Noroeste 0 -- -- 96
2021-02-25 06:00:00 7.3 8 Noroeste 12 Noroeste 0 -- -- 96
2021-02-25 05:00:00 7.4 9 Noroeste 13 Noroeste 0 -- -- 95
2021-02-25 04:00:00 7.7 8 Noroeste 11 Noroeste 0 -- -- 95
2021-02-25 03:00:00 8.3 8 Noroeste 10 Noroeste 0 -- -- 93
2021-02-25 02:00:00 9.5 8 Noroeste 13 Noroeste 0 -- -- 93
2021-02-25 01:00:00 9.7 8 Noroeste 10 Noroeste 0 -- -- 92
2021-02-25 00:00:00 10.5 7 Noroeste 10 Noroeste 0 -- -- 90
2021-02-24 23:00:00 11.1 6 Noroeste 10 Sudeste 0 -- -- 86
2021-02-24 22:00:00 13.3 5 Sudeste 10 Sudeste 0 -- -- 85
2021-02-24 21:00:00 13.4 5 Este 12 Sudeste 0 -- -- 87
2021-02-24 20:00:00 13.4 5 Este 12 Este 0 -- -- 85
2021-02-24 19:00:00 13.5 6 Este 14 Sudeste 0 -- -- 84
2021-02-24 18:00:00 14.7 8 Este 16 Sudeste 0 -- -- 76
2021-02-24 17:00:00 15.6 9 Sudeste 17 Sudeste 0 -- -- 70
2021-02-24 16:00:00 16 13 Sudeste 20 Sudeste 0 -- -- 67
2021-02-24 15:00:00 16.8 13 Sudeste 22 Sudeste 0 -- -- 64
2021-02-24 14:00:00 17.7 9 Sudeste 23 Este 0 -- -- 65
2021-02-24 13:00:00 17 13 Sudeste 25 Sudeste 0 -- -- 66
2021-02-24 12:00:00 16.9 12 Sudeste 21 Este 0 -- -- 71
2021-02-24 11:00:00 16.5 12 Este 18 Este 0 -- -- 73
2021-02-24 10:00:00 16.3 9 Sudeste 19 Sudeste 0 -- -- 80
2021-02-24 09:00:00 14.8 10 Sudeste 17 Sudeste 0 -- -- 92
2021-02-24 08:00:00 10.5 0 Calma 7 Este 0 -- -- 99
2021-02-24 07:00:00 9.5 3 Este 8 Noroeste 0 -- -- 98
2021-02-24 06:00:00 8.9 4 Noroeste 9 Noroeste 0 -- -- 98
2021-02-24 05:00:00 9.2 4 Noroeste 10 Oeste 0 -- -- 97
2021-02-24 04:00:00 9.6 6 Noroeste 9 Oeste 0 -- -- 96
2021-02-24 03:00:00 10.9 4 Noroeste 6 Noroeste 0 -- -- 96
2021-02-24 02:00:00 11.5 0 Calma 10 Sudeste 0 -- -- 94
2021-02-24 01:00:00 13.4 6 Este 12 Sudeste 0 -- -- 93
2021-02-24 00:00:00 14.5 7 Este 16 Sudeste 0 -- -- 90
2021-02-23 23:00:00 14.5 8 Este 19 Sudeste 0 -- -- 91
2021-02-23 22:00:00 14.7 10 Este 20 Este 0 -- -- 90
2021-02-23 21:00:00 14.8 9 Este 17 Este 0 -- -- 88
2021-02-23 20:00:00 14.9 8 Este 15 Este 0 -- -- 87
2021-02-23 19:00:00 15 7 Este 18 Nordeste 0 -- -- 86
2021-02-23 18:00:00 15.2 7 Este 18 Este 0 -- -- 84
2021-02-23 17:00:00 15.7 11 Este 21 Nordeste 0 -- -- 83
2021-02-23 16:00:00 16.4 10 Este 17 Este 0 -- -- 80
2021-02-23 15:00:00 16.1 12 Este 22 Este 0 -- -- 83
2021-02-23 14:00:00 17.2 10 Este 21 Nordeste 0 -- -- 78
2021-02-23 13:00:00 17.8 10 Este 20 Nordeste 0 -- -- 78
2021-02-23 12:00:00 17.1 9 Este 18 Nordeste 0 -- -- 82
2021-02-23 11:00:00 15.6 12 Nordeste 18 Nordeste 0 -- -- 86
2021-02-23 10:00:00 14.3 10 Norte 20 Norte 0 -- -- 91
2021-02-23 09:00:00 13.2 4 Noroeste 8 Noroeste 0 -- -- 95
2021-02-23 08:00:00 12.2 4 Noroeste 9 Noroeste 0 -- -- 96
2021-02-23 07:00:00 11.7 4 Noroeste 6 Noroeste 0 -- -- 95
2021-02-23 06:00:00 11.9 5 Noroeste 6 Noroeste 0 -- -- 95
2021-02-23 05:00:00 11.9 0 Calma 4 Noroeste 0 -- -- 95
2021-02-23 04:00:00 12.1 3 Noroeste 12 Sudeste 0 -- -- 94
2021-02-23 03:00:00 11.9 4 Noroeste 8 Noroeste 0 -- -- 95
2021-02-23 02:00:00 11.8 6 Noroeste 7 Noroeste 0 -- -- 94
2021-02-23 01:00:00 12 4 Noroeste 5 Noroeste 0 -- -- 94
2021-02-23 00:00:00 12.4 0 Calma 2 Sudoeste 0 -- -- 93
2021-02-22 23:00:00 13.1 0 Calma 6 Sur 0 -- -- 93
2021-02-22 22:00:00 13.2 0 Calma 13 Sur 0 -- -- 92
2021-02-22 21:00:00 14.1 5 Sudeste 14 Sur 0 -- -- 91
2021-02-22 20:00:00 14 6 Sur 15 Sur 0 -- -- 89
2021-02-22 19:00:00 14 7 Sur 21 Sur 0 -- -- 87
2021-02-22 18:00:00 14.6 11 Sur 22 Sur 0 -- -- 85
2021-02-22 17:00:00 15.1 12 Sur 23 Sudeste 0 -- -- 83
2021-02-22 16:00:00 15.6 14 Sur 30 Sur 0 -- -- 80
2021-02-22 15:00:00 15.3 15 Sur 27 Sudoeste 0 -- -- 84
2021-02-22 14:00:00 14.6 15 Sur 23 Sur 0 -- -- 83
2021-02-22 13:00:00 14.5 8 Sur 25 Oeste 0 -- -- 85
2021-02-22 12:00:00 14.3 13 Sudoeste 20 Sudoeste 0 -- -- 82
2021-02-22 11:00:00 15.1 8 Sudoeste 19 Sudoeste 0 -- -- 74
2021-02-22 10:00:00 14.6 8 Oeste 18 Oeste 0 -- -- 78
2021-02-22 09:00:00 14.7 3 Oeste 12 Sur 0 -- -- 79
2021-02-22 08:00:00 14.5 6 Sudoeste 17 Sur 0 -- -- 79
2021-02-22 07:00:00 14.3 5 Sudoeste 18 Sudoeste 0 -- -- 81
2021-02-22 06:00:00 14.8 9 Sudeste 39 Oeste 0 -- -- 81
2021-02-22 05:00:00 14.9 16 Oeste 30 Oeste 0 -- -- 83
2021-02-22 04:00:00 15.3 14 Oeste 27 Oeste 0 -- -- 79
2021-02-22 03:00:00 15.9 12 Oeste 23 Oeste 0 -- -- 77
2021-02-22 02:00:00 16.2 8 Sudoeste 20 Sudoeste 0 -- -- 77
2021-02-22 01:00:00 15.7 6 Sudoeste 18 Sudoeste 0 -- -- 82
2021-02-22 00:00:00 16.4 4 Sur 16 Sur 0 -- -- 79
2021-02-21 23:00:00 16.3 2 Sudoeste 17 Sur 0 -- -- 79
2021-02-21 22:00:00 16.9 6 Sudeste 21 Sudeste 0 -- -- 75
2021-02-21 21:00:00 16.2 5 Sudoeste 30 Sudeste 0 -- -- 79
2021-02-21 20:00:00 15.6 10 Sudeste 21 Este 0 -- -- 84
2021-02-21 19:00:00 15.2 3 Este 15 Sudeste 0 -- -- 86
2021-02-21 18:00:00 15.5 9 Sudeste 22 Este 0 -- -- 85
2021-02-21 17:00:00 15.9 3 Sudeste 17 Sudeste 0 -- -- 83
2021-02-21 16:00:00 16.6 7 Sudeste 21 Sudeste 0 -- -- 82
2021-02-21 15:00:00 16.5 11 Sudeste 20 Sudeste 0 -- -- 84
2021-02-21 14:00:00 16.5 8 Sudeste 25 Sudeste 0 -- -- 86
2021-02-21 13:00:00 16.9 14 Sudeste 24 Sudeste 0 -- -- 83
2021-02-21 12:00:00 15.8 14 Este 22 Este 0 -- -- 88
2021-02-21 11:00:00 15.5 10 Sudeste 23 Este 0 -- -- 90
2021-02-21 10:00:00 14.9 11 Sudeste 22 Este 0 -- -- 92
2021-02-21 09:00:00 14.4 10 Sudeste 21 Este 0 -- -- 94
2021-02-21 08:00:00 14 9 Sudeste 18 Sudeste 0 -- -- 95
2021-02-21 07:00:00 13.6 10 Sudeste 19 Este 0 -- -- 95
2021-02-21 06:00:00 13.5 8 Sudeste 18 Sudeste 0 -- -- 94
2021-02-21 05:00:00 13.6 10 Sudeste 19 Sudeste 0 -- -- 94
2021-02-21 04:00:00 13.6 9 Sudeste 21 Sudeste 0 -- -- 94
2021-02-21 03:00:00 13.6 12 Sudeste 22 Sudeste 0 -- -- 93
2021-02-21 02:00:00 13.7 12 Sudeste 23 Sudeste 0 -- -- 93
2021-02-21 01:00:00 13.7 11 Sudeste 22 Sudeste 0 -- -- 93
2021-02-21 00:00:00 13.6 10 Sudeste 19 Sudeste 0 -- -- 93
2021-02-20 23:00:00 13.6 9 Sudeste 19 Sudeste 0 -- -- 94
2021-02-20 22:00:00 13.4 4 Sudeste 10 Sudeste 0 -- -- 94
2021-02-20 21:00:00 13.2 5 Sudeste 14 Sudeste 0 -- -- 92
2021-02-20 20:00:00 13.2 7 Sudeste 14 Sudeste 0 -- -- 89
2021-02-20 19:00:00 13.4 8 Sudeste 15 Sudeste 0 -- -- 89
2021-02-20 18:00:00 13.7 7 Sudeste 17 Este 0 -- -- 86
2021-02-20 17:00:00 14.5 8 Sudeste 16 Sudeste 0 -- -- 83
2021-02-20 16:00:00 15.3 8 Sudeste 17 Sudeste 0 -- -- 80
2021-02-20 15:00:00 15.5 9 Sudeste 19 Sudeste 0 -- -- 80
2021-02-20 14:00:00 15.9 12 Sudeste 20 Sudeste 0 -- -- 76
2021-02-20 13:00:00 16.1 12 Sudeste 21 Este 0 -- -- 75
2021-02-20 12:00:00 16 9 Sudeste 16 Este 0 -- -- 75
2021-02-20 11:00:00 15 8 Sudeste 15 Sudeste 0 -- -- 83
2021-02-20 10:00:00 14.2 6 Este 12 Este 0 -- -- 88
2021-02-20 09:00:00 12.5 0 Calma 8 Noroeste 0 -- -- 94
2021-02-20 08:00:00 9.5 7 Noroeste 11 Oeste 0 -- -- 96
2021-02-20 07:00:00 8.7 6 Noroeste 9 Noroeste 0 -- -- 96
2021-02-20 06:00:00 9.5 5 Noroeste 9 Noroeste 0 -- -- 96
2021-02-20 05:00:00 9.9 5 Noroeste 9 Noroeste 0 -- -- 94
2021-02-20 04:00:00 10.3 4 Oeste 6 Noroeste 0 -- -- 94
2021-02-20 03:00:00 11 4 Oeste 10 Sudoeste 0 -- -- 93
2021-02-20 02:00:00 11.9 3 Sudoeste 12 Sur 0 -- -- 93
2021-02-20 01:00:00 11.7 3 Sudoeste 8 Sudoeste 0 -- -- 95
2021-02-20 00:00:00 9.9 2 Noroeste 8 Noroeste 0 -- -- 95
2021-02-19 23:00:00 8.7 6 Noroeste 9 Noroeste 0 -- -- 94
2021-02-19 22:00:00 9.2 4 Noroeste 7 Noroeste 0 -- -- 92
2021-02-19 21:00:00 10.8 4 Oeste 7 Sudoeste 0 -- -- 88
2021-02-19 20:00:00 12.9 4 Sudoeste 12 Sudoeste 0 -- -- 86
2021-02-19 19:00:00 13.6 5 Sur 14 Sudoeste 0 -- -- 85
2021-02-19 18:00:00 14 7 Sur 14 Sur 0 -- -- 85
2021-02-19 17:00:00 14.2 7 Sudeste 12 Sudeste 0 -- -- 85
2021-02-19 16:00:00 14.3 8 Sudeste 18 Sudeste 0 -- -- 82
2021-02-19 15:00:00 15.3 12 Sudeste 19 Este 0 -- -- 77
2021-02-19 14:00:00 15.4 13 Sudeste 20 Sudeste 0 -- -- 76
2021-02-19 13:00:00 15.8 9 Sudeste 17 Sudeste 0 -- -- 76
2021-02-19 12:00:00 15.6 10 Sudeste 17 Sudeste 0 -- -- 78
2021-02-19 11:00:00 15.8 6 Sudeste 12 Este 0 -- -- 79
2021-02-19 10:00:00 14.8 3 Este 9 Oeste 0 -- -- 90
2021-02-19 09:00:00 11.7 4 Noroeste 9 Oeste 0 -- -- 96
2021-02-19 08:00:00 6.1 4 Noroeste 6 Noroeste 0 -- -- 98
2021-02-19 07:00:00 7.5 4 Noroeste 8 Noroeste 0 -- -- 98
2021-02-19 06:00:00 7.1 2 Noroeste 9 Oeste 0 -- -- 97
2021-02-19 05:00:00 7.5 6 Noroeste 10 Noroeste 0 -- -- 97
2021-02-19 04:00:00 7.8 3 Nordeste 9 Norte 0 -- -- 99
2021-02-19 03:00:00 6.7 5 Noroeste 9 Noroeste 0 -- -- 97
2021-02-19 02:00:00 7 4 Noroeste 9 Noroeste 0 -- -- 96
2021-02-19 01:00:00 7.3 8 Noroeste 11 Noroeste 0 -- -- 96
2021-02-19 00:00:00 7.5 8 Noroeste 12 Noroeste 0 -- -- 96
2021-02-18 23:00:00 8.9 3 Noroeste 12 Noroeste 0 -- -- 96
2021-02-18 22:00:00 10 5 Noroeste 8 Noroeste 0 -- -- 94
2021-02-18 21:00:00 12.7 2 Oeste 6 Oeste 0 -- -- 94
2021-02-18 20:00:00 13.8 2 Sur 6 Sudeste 0 -- -- 93
2021-02-18 19:00:00 14.4 0 Calma 14 Sudeste 0 -- -- 92
2021-02-18 18:00:00 14.7 6 Sudeste 12 Sudeste 0 -- -- 90
2021-02-18 17:00:00 15 5 Sudeste 14 Sudeste 0 -- -- 87
2021-02-18 16:00:00 15.5 5 Sudeste 18 Sudeste 0 -- -- 86
2021-02-18 15:00:00 15.8 9 Sudeste 19 Sudeste 0 -- -- 83
2021-02-18 14:00:00 16.6 9 Sudeste 19 Sudeste 0 -- -- 77
2021-02-18 13:00:00 15.8 13 Sudeste 21 Sudeste 0 -- -- 78
2021-02-18 12:00:00 16.2 9 Sudeste 16 Sudeste 0 -- -- 79
2021-02-18 11:00:00 15.6 7 Sudeste 15 Sudeste 0 -- -- 79
2021-02-18 10:00:00 14.3 8 Sudeste 15 Sur 0 -- -- 81
2021-02-18 09:00:00 14.2 5 Sudeste 11 Sur 0 -- -- 85
2021-02-18 08:00:00 12.2 3 Sudeste 7 Sur 0 -- -- 89
2021-02-18 07:00:00 12.2 0 Calma 6 Sudoeste 0 -- -- 90
2021-02-18 06:00:00 12.2 0 Calma 8 Sudoeste 0 -- -- 90
2021-02-18 05:00:00 12.2 0 Calma 6 Sur 0 -- -- 91
2021-02-18 04:00:00 12.4 4 Sur 10 Sudoeste 0 -- -- 91
2021-02-18 03:00:00 12.4 6 Sudoeste 12 Sudoeste 0 -- -- 92
2021-02-18 02:00:00 12.3 6 Sudoeste 13 Sudoeste 0 -- -- 93
2021-02-18 01:00:00 10.6 2 Oeste 7 Oeste 0 -- -- 94
2021-02-18 00:00:00 10.6 2 Oeste 8 Sudoeste 0 -- -- 93
2021-02-17 23:00:00 10.8 0 Calma 4 Sudoeste 0 -- -- 93
2021-02-17 22:00:00 10.1 3 Oeste 8 Sudoeste 0 -- -- 92
2021-02-17 21:00:00 11.4 5 Sudoeste 12 Sudoeste 0 -- -- 91
2021-02-17 20:00:00 10.8 3 Sudoeste 6 Sur 0 -- -- 90
2021-02-17 19:00:00 12.3 4 Sur 14 Sur 0 -- -- 87
2021-02-17 18:00:00 13.3 5 Sur 13 Sur 0 -- -- 83
2021-02-17 17:00:00 14 9 Sur 18 Sudeste 0 -- -- 79
2021-02-17 16:00:00 14.8 13 Sudeste 24 Sudeste 0 -- -- 75
2021-02-17 15:00:00 16.3 8 Sudeste 21 Sudeste 0 -- -- 70
2021-02-17 14:00:00 15.3 11 Sur 22 Sudeste 0 -- -- 71
2021-02-17 13:00:00 15 10 Sudeste 19 Sudeste 0 -- -- 71
2021-02-17 12:00:00 14.7 9 Sudeste 15 Sudeste 0 -- -- 72
2021-02-17 11:00:00 13.8 7 Sudeste 12 Sudeste 0 -- -- 75
2021-02-17 10:00:00 14.6 3 Sur 8 Noroeste 0 -- -- 79
2021-02-17 09:00:00 11.3 6 Noroeste 12 Noroeste 0 -- -- 91
2021-02-17 08:00:00 6.1 8 Noroeste 12 Oeste 0 -- -- 97
2021-02-17 07:00:00 6 5 Norte 14 Oeste 0 -- -- 96
2021-02-17 06:00:00 6.6 6 Noroeste 12 Noroeste 0 -- -- 96
2021-02-17 05:00:00 5.9 7 Noroeste 10 Noroeste 0 -- -- 95
2021-02-17 04:00:00 6.8 6 Noroeste 9 Noroeste 0 -- -- 95
2021-02-17 03:00:00 7.3 5 Noroeste 9 Noroeste 0 -- -- 94
2021-02-17 02:00:00 7.9 6 Noroeste 13 Oeste 0 -- -- 94
2021-02-17 01:00:00 6 8 Noroeste 10 Noroeste 0 -- -- 93
2021-02-17 00:00:00 6.4 6 Noroeste 14 Sudoeste 0 -- -- 90
2021-02-16 23:00:00 6.3 7 Noroeste 13 Oeste 0 -- -- 88
2021-02-16 22:00:00 8 7 Oeste 18 Oeste 0 -- -- 84
2021-02-16 21:00:00 7.5 9 Oeste 12 Oeste 0 -- -- 83
2021-02-16 20:00:00 11 8 Sudoeste 18 Oeste 0 -- -- 77
2021-02-16 19:00:00 11.2 8 Sudoeste 19 Sudoeste 0 -- -- 77
2021-02-16 18:00:00 12.2 13 Sudoeste 26 Sur 0 -- -- 72
2021-02-16 17:00:00 13.3 14 Sudoeste 29 Sudoeste 0 -- -- 68
2021-02-16 16:00:00 13.8 18 Sur 30 Sur 0 -- -- 65
2021-02-16 15:00:00 14.5 14 Sur 26 Sur 0 -- -- 63
2021-02-16 14:00:00 14.2 15 Sur 31 Sur 0 -- -- 63
2021-02-16 13:00:00 14 14 Sur 26 Sur 0 -- -- 63
2021-02-16 12:00:00 13.4 10 Sur 24 Sudoeste 0 -- -- 65
2021-02-16 11:00:00 13.9 12 Sudoeste 23 Sudoeste 0 -- -- 63
2021-02-16 10:00:00 12.7 11 Sudoeste 18 Sudoeste 0 -- -- 66
2021-02-16 09:00:00 10.1 0 Calma 11 Noroeste 0 -- -- 91
2021-02-16 08:00:00 3.6 6 Noroeste 12 Oeste 0 -- -- 94
2021-02-16 07:00:00 3.5 7 Noroeste 11 Noroeste 0 -- -- 95
2021-02-16 06:00:00 3.5 8 Noroeste 10 Noroeste 0 -- -- 94
2021-02-16 05:00:00 3.2 6 Noroeste 10 Noroeste 0 -- -- 93
2021-02-16 04:00:00 3.5 7 Noroeste 10 Noroeste 0 -- -- 92
2021-02-16 03:00:00 4.2 7 Noroeste 11 Noroeste 0 -- -- 91
2021-02-16 02:00:00 4.7 9 Noroeste 12 Noroeste 0 -- -- 89
2021-02-16 01:00:00 5.4 8 Noroeste 11 Noroeste 0 -- -- 87
2021-02-16 00:00:00 6.5 6 Noroeste 9 Noroeste 0 -- -- 84
2021-02-15 23:00:00 8 4 Noroeste 6 Noroeste 0 -- -- 79
2021-02-15 22:00:00 8.9 4 Noroeste 5 Noroeste 0 -- -- 76
2021-02-15 21:00:00 9.3 2 Oeste 4 Oeste 0 -- -- 73
2021-02-15 20:00:00 9.7 3 Oeste 4 Oeste 0 -- -- 70
2021-02-15 19:00:00 10.2 0 Calma 9 Sur 0 -- -- 66
2021-02-15 18:00:00 10.6 5 Sur 11 Sudeste 0 -- -- 62
2021-02-15 17:00:00 11 6 Sur 13 Sudeste 0 -- -- 62
2021-02-15 16:00:00 11.6 7 Sudeste 18 Sudeste 0 -- -- 60
2021-02-15 15:00:00 11.9 9 Sudeste 18 Sudeste 0 -- -- 58
2021-02-15 14:00:00 12.3 8 Sudeste 18 Sudeste 0 -- -- 57
2021-02-15 13:00:00 12 6 Sudeste 20 Sudeste 0 -- -- 57
2021-02-15 12:00:00 11.4 9 Sudeste 17 Sur 0 -- -- 59
2021-02-15 11:00:00 11.1 5 Sudeste 15 Sur 0 -- -- 61
2021-02-15 10:00:00 10.3 9 Sudeste 18 Sudeste 0 -- -- 62
2021-02-15 09:00:00 9.8 8 Sudeste 17 Sudeste 0 -- -- 65
2021-02-15 08:00:00 9.5 9 Sudeste 17 Sudeste 0 -- -- 67
2021-02-15 07:00:00 6.4 4 Sudeste 14 Sudeste 0 -- -- 92
2021-02-15 06:00:00 5.4 7 Noroeste 11 Noroeste 0 -- -- 86
2021-02-15 05:00:00 5.3 7 Noroeste 11 Noroeste 0 -- -- 85
2021-02-15 04:00:00 5.3 8 Noroeste 12 Noroeste 0 -- -- 84
2021-02-15 03:00:00 5.1 9 Noroeste 13 Oeste 0 -- -- 86
2021-02-15 02:00:00 4.3 9 Noroeste 13 Noroeste 0 -- -- 87
2021-02-15 01:00:00 3.8 8 Noroeste 14 Noroeste 0 -- -- 87
2021-02-15 00:00:00 3.9 9 Noroeste 13 Noroeste 0 -- -- 87
2021-02-14 23:00:00 4.2 8 Noroeste 12 Noroeste 0 -- -- 85
2021-02-14 22:00:00 4.4 7 Noroeste 9 Noroeste 0 -- -- 82
2021-02-14 21:00:00 5.7 4 Noroeste 8 Norte 0 -- -- 76
2021-02-14 20:00:00 7.6 4 Norte 14 Nordeste 0 -- -- 71
2021-02-14 19:00:00 8.7 7 Nordeste 19 Nordeste 0 -- -- 67
2021-02-14 18:00:00 9.7 10 Este 17 Este 0 -- -- 61
2021-02-14 17:00:00 10.2 10 Este 24 Este 0 -- -- 63
2021-02-14 16:00:00 10.7 15 Este 27 Nordeste 0 -- -- 62
2021-02-14 15:00:00 11.2 12 Este 26 Este 0 -- -- 61
2021-02-14 14:00:00 11.2 12 Este 27 Este 0 -- -- 64
2021-02-14 13:00:00 10.7 13 Este 24 Este 0 -- -- 69
2021-02-14 12:00:00 11.7 15 Este 27 Este 0 -- -- 62
2021-02-14 11:00:00 11.4 12 Este 24 Este 0 -- -- 67
2021-02-14 10:00:00 11.5 12 Este 26 Este 0 -- -- 69
2021-02-14 09:00:00 11.5 11 Este 22 Este 0 -- -- 71
2021-02-14 08:00:00 11.2 12 Este 25 Este 0 -- -- 70
2021-02-14 07:00:00 11.5 9 Nordeste 23 Norte 0 -- -- 74
2021-02-14 06:00:00 11.8 8 Nordeste 21 Norte 0 -- -- 74
2021-02-14 05:00:00 11.7 9 Nordeste 18 Nordeste 0.2 -- -- 83
2021-02-14 04:00:00 11.5 4 Norte 6 Nordeste 0 -- -- 88
2021-02-14 03:00:00 11.9 0 Calma 10 Este 0 -- -- 85
2021-02-14 02:00:00 12.1 6 Este 16 Este 0 -- -- 86
2021-02-14 01:00:00 11.9 2 Nordeste 6 Nordeste 0 -- -- 89
2021-02-14 00:00:00 12 3 Nordeste 8 Sudeste 0 -- -- 87
2021-02-13 23:00:00 12.2 6 Este 11 Este 0 -- -- 87
2021-02-13 22:00:00 11.9 2 Noroeste 5 Nordeste 0 -- -- 87
2021-02-13 21:00:00 12.2 0 Calma 6 Sudeste 0 -- -- 86
2021-02-13 20:00:00 12.3 0 Calma 4 Este 0 -- -- 85
2021-02-13 19:00:00 12.5 2 Sudeste 6 Este 0 -- -- 81
2021-02-13 18:00:00 12.9 4 Sudeste 12 Sudeste 0 -- -- 78
2021-02-13 17:00:00 13.3 6 Sudeste 14 Este 0 -- -- 77
2021-02-13 16:00:00 13.7 8 Este 20 Nordeste 0 -- -- 76
2021-02-13 15:00:00 14.1 13 Nordeste 19 Nordeste 0 -- -- 75
2021-02-13 14:00:00 14.7 12 Nordeste 21 Nordeste 0 -- -- 71
2021-02-13 13:00:00 15 10 Nordeste 18 Nordeste 0 -- -- 70
2021-02-13 08:00:00 -- -- -- -- -- -- -- -- --
2021-02-13 07:00:00 12.6 13 Norte 24 Norte 0 -- -- 90
2021-02-13 06:00:00 11.9 2 Oeste 22 Norte 0 -- -- 92
2021-02-13 05:00:00 11.1 5 Norte 12 Norte 0 -- -- 95
2021-02-13 04:00:00 10.3 5 Noroeste 13 Oeste 0 -- -- 95
2021-02-13 03:00:00 10.6 5 Noroeste 12 Noroeste 0 -- -- 94
2021-02-13 02:00:00 10.9 7 Noroeste 13 Noroeste 0 -- -- 94
2021-02-13 01:00:00 11.4 3 Sudoeste 5 Oeste 0 -- -- 93
2021-02-13 00:00:00 11.5 3 Norte 18 Noroeste 1.4 -- -- 92
2021-02-12 23:00:00 12.7 14 Noroeste 30 Noroeste 0.2 -- -- 86
2021-02-12 22:00:00 13.3 13 Noroeste 28 Noroeste 0 -- -- 79
2021-02-12 21:00:00 12.8 14 Noroeste 32 Noroeste 0 -- -- 77
2021-02-12 20:00:00 12.6 6 Noroeste 13 Noroeste 0 -- -- 82
2021-02-12 19:00:00 14.8 12 Noroeste 37 Noroeste 0 -- -- 74
2021-02-12 18:00:00 16 13 Noroeste 37 Oeste 0 -- -- 75
2021-02-12 17:00:00 16.7 19 Oeste 35 Oeste 0 -- -- 79
2021-02-12 16:00:00 15.8 9 Sudoeste 27 Oeste 0 -- -- 81
2021-02-12 15:00:00 16 14 Sudoeste 32 Oeste 0 -- -- 82
2021-02-12 14:00:00 16.8 7 Noroeste 31 Oeste 0 -- -- 80
2021-02-12 13:00:00 16.6 14 Oeste 32 Oeste 0 -- -- 83
2021-02-12 12:00:00 16.8 19 Oeste 31 Oeste 0 -- -- 83
2021-02-12 11:00:00 17.3 11 Oeste 27 Oeste 0 -- -- 83
2021-02-12 10:00:00 14.7 5 Sudoeste 14 Sudoeste 0 -- -- 92
2021-02-12 09:00:00 14 3 Noroeste 14 Sur 0 -- -- 95
2021-02-12 08:00:00 13.1 8 Sur 17 Sudoeste 0 -- -- 95
2021-02-12 07:00:00 11.2 4 Sudoeste 10 Noroeste 0 -- -- 94
2021-02-12 06:00:00 7.6 5 Noroeste 8 Noroeste 0 -- -- 94
2021-02-12 05:00:00 7.4 5 Noroeste 9 Noroeste 0 -- -- 93
2021-02-12 04:00:00 8 5 Noroeste 10 Noroeste 0 -- -- 92
2021-02-12 03:00:00 7.8 8 Noroeste 10 Oeste 0 -- -- 92
2021-02-12 02:00:00 7.9 7 Noroeste 9 Noroeste 0 -- -- 90
2021-02-12 01:00:00 8.9 3 Nordeste 12 Oeste 0 -- -- 89
2021-02-12 00:00:00 9.4 8 Noroeste 13 Noroeste 0 -- -- 87
2021-02-11 23:00:00 11.2 10 Noroeste 16 Noroeste 0 -- -- 85
2021-02-11 22:00:00 9.4 3 Norte 16 Noroeste 0 -- -- 82
2021-02-11 21:00:00 10.8 10 Noroeste 15 Noroeste 0 -- -- 82
2021-02-11 20:00:00 11.1 2 Noroeste 11 Sudoeste 0 -- -- 75
2021-02-11 19:00:00 11.9 6 Noroeste 9 Noroeste 0 -- -- 73
2021-02-11 18:00:00 14.7 4 Sur 9 Sur 0 -- -- 64
2021-02-11 17:00:00 16.9 6 Sur 18 Sudeste 0 -- -- 66
2021-02-11 16:00:00 21.1 8 Oeste 23 Oeste 0 -- -- 35
2021-02-11 15:00:00 21.8 12 Oeste 27 Noroeste 0 -- -- 30
2021-02-11 14:00:00 22.4 10 Oeste 26 Oeste 0 -- -- 35
2021-02-11 13:00:00 19.8 13 Sudoeste 25 Oeste 0 -- -- 44
2021-02-11 12:00:00 19.2 14 Oeste 26 Oeste 0 -- -- 50
2021-02-11 11:00:00 16.9 12 Oeste 25 Oeste 0 -- -- 61
2021-02-11 10:00:00 16 14 Oeste 27 Oeste 0 -- -- 68
2021-02-11 09:00:00 14.5 7 Sudoeste 19 Oeste 0 -- -- 70
2021-02-11 08:00:00 8.4 13 Oeste 19 Oeste 0 -- -- 92
2021-02-11 07:00:00 4.9 4 Norte 12 Noroeste 0 -- -- 89
2021-02-11 06:00:00 4.6 5 Noroeste 12 Noroeste 0 -- -- 87
2021-02-11 05:00:00 4.8 7 Noroeste 10 Noroeste 0 -- -- 86
2021-02-11 04:00:00 5.9 6 Noroeste 11 Norte 0 -- -- 82
2021-02-11 03:00:00 6 8 Noroeste 12 Oeste 0 -- -- 83
2021-02-11 02:00:00 5.2 6 Noroeste 9 Noroeste 0 -- -- 84
2021-02-11 01:00:00 6.1 5 Noroeste 8 Noroeste 0 -- -- 80
2021-02-11 00:00:00 6.7 3 Norte 9 Noroeste 0 -- -- 75
2021-02-10 23:00:00 8.7 6 Oeste 14 Sur 0 -- -- 69
2021-02-10 22:00:00 10.5 7 Norte 21 Sudoeste 0 -- -- 65
2021-02-10 21:00:00 9.9 5 Norte 22 Noroeste 0 -- -- 69
2021-02-10 20:00:00 11.7 14 Noroeste 21 Noroeste 0 -- -- 63
2021-02-10 19:00:00 12.2 9 Noroeste 31 Noroeste 0 -- -- 63
2021-02-10 18:00:00 13.1 22 Noroeste 42 Norte 0 -- -- 60
2021-02-10 17:00:00 15.3 24 Noroeste 48 Noroeste 0 -- -- 51
2021-02-10 16:00:00 16.4 25 Noroeste 56 Noroeste 0 -- -- 43
2021-02-10 15:00:00 15.9 21 Noroeste 55 Noroeste 0 -- -- 48
2021-02-10 14:00:00 17.5 23 Noroeste 66 Noroeste 0 -- -- 47
2021-02-10 13:00:00 18 39 Oeste 69 Oeste 0 -- -- 45
2021-02-10 12:00:00 17.6 32 Oeste 65 Oeste 0 -- -- 50
2021-02-10 11:00:00 16.9 38 Oeste 73 Oeste 0 -- -- 48
2021-02-10 10:00:00 16.5 27 Oeste 55 Oeste 0 -- -- 66
2021-02-10 09:00:00 15 21 Oeste 54 Oeste 0 -- -- 57
2021-02-10 08:00:00 14.9 26 Oeste 56 Oeste 0 -- -- 55
2021-02-10 07:00:00 14.6 25 Oeste 51 Oeste 0 -- -- 59
2021-02-10 06:00:00 14.3 21 Oeste 46 Oeste 0 -- -- 67
2021-02-10 05:00:00 13.1 17 Oeste 32 Oeste 0 -- -- 89
2021-02-10 04:00:00 13.3 11 Oeste 32 Oeste 0 -- -- 87
2021-02-10 03:00:00 13.3 15 Oeste 29 Oeste 0 -- -- 91
2021-02-10 02:00:00 13.8 18 Oeste 48 Sudoeste 0 -- -- 89
2021-02-10 01:00:00 14.1 17 Oeste 41 Oeste 0 -- -- 88
2021-02-10 00:00:00 14.6 20 Oeste 53 Oeste 0 -- -- 86
2021-02-09 23:00:00 14.7 23 Oeste 46 Oeste 0 -- -- 85
2021-02-09 22:00:00 14.4 21 Sudoeste 49 Oeste 0 -- -- 86
2021-02-09 21:00:00 14.1 21 Sudoeste 35 Sudoeste 0.2 -- -- 85
2021-02-09 20:00:00 13.7 19 Oeste 34 Oeste 0 -- -- 79
2021-02-09 19:00:00 13.8 16 Oeste 34 Oeste 0 -- -- 78
2021-02-09 18:00:00 14.6 18 Sudoeste 41 Sudoeste 0 -- -- 70
2021-02-09 17:00:00 15.4 14 Sudoeste 35 Oeste 0 -- -- 59
2021-02-09 16:00:00 16.1 17 Oeste 35 Sudoeste 0 -- -- 54
2021-02-09 15:00:00 16.1 17 Sudoeste 46 Oeste 0 -- -- 61
2021-02-09 14:00:00 16.8 30 Oeste 60 Oeste 0 -- -- 55
2021-02-09 13:00:00 18.3 27 Oeste 47 Oeste 0 -- -- 46
2021-02-09 12:00:00 15.7 18 Oeste 42 Oeste 0 -- -- 59
2021-02-09 11:00:00 14.7 21 Oeste 34 Sudoeste 0 -- -- 65
2021-02-09 10:00:00 15.2 13 Oeste 22 Oeste 0 -- -- 64
2021-02-09 09:00:00 14.2 10 Oeste 21 Oeste 0 -- -- 64
2021-02-09 08:00:00 11.4 10 Oeste 21 Oeste 0 -- -- 74
2021-02-09 07:00:00 11.7 15 Oeste 25 Oeste 0 -- -- 74
2021-02-09 06:00:00 11.3 10 Oeste 29 Oeste 0 -- -- 74
2021-02-09 05:00:00 11.6 14 Oeste 25 Oeste 0 -- -- 72
2021-02-09 04:00:00 12.2 15 Oeste 36 Oeste 0 -- -- 70
2021-02-09 03:00:00 11.9 13 Oeste 26 Oeste 0 -- -- 71
2021-02-09 02:00:00 12.8 15 Oeste 32 Oeste 0 -- -- 67
2021-02-09 01:00:00 12.6 18 Oeste 35 Oeste 0 -- -- 68
2021-02-09 00:00:00 12.7 17 Oeste 35 Oeste 0 -- -- 67
2021-02-08 23:00:00 12.4 14 Oeste 36 Oeste 0 -- -- 71
2021-02-08 22:00:00 13.2 21 Oeste 38 Oeste 0 -- -- 67
2021-02-08 21:00:00 13.7 15 Oeste 39 Oeste 0 -- -- 60
2021-02-08 20:00:00 13.7 15 Oeste 35 Oeste 0 -- -- 66
2021-02-08 19:00:00 13.8 13 Oeste 42 Oeste 0 -- -- 66
2021-02-08 18:00:00 14.5 21 Oeste 41 Oeste 0 -- -- 64
2021-02-08 17:00:00 15.2 20 Oeste 50 Oeste 0 -- -- 64
2021-02-08 16:00:00 15.6 25 Oeste 55 Sudoeste 0 -- -- 74
2021-02-08 15:00:00 14.8 16 Sudoeste 53 Oeste 0 -- -- 80
2021-02-08 14:00:00 14.2 24 Oeste 45 Oeste 0.2 -- -- 79
2021-02-08 13:00:00 15.1 24 Oeste 52 Oeste 0 -- -- 65
2021-02-08 12:00:00 16.2 22 Oeste 67 Oeste 0 -- -- 63
2021-02-08 11:00:00 15.2 22 Oeste 47 Oeste 0 -- -- 62
2021-02-08 10:00:00 14.4 28 Oeste 57 Oeste 0 -- -- 65
2021-02-08 09:00:00 13.4 31 Oeste 48 Oeste 0 -- -- 70
2021-02-08 08:00:00 11.5 24 Oeste 42 Oeste 0 -- -- 78
2021-02-08 07:00:00 11.5 15 Oeste 29 Oeste 0 -- -- 79
2021-02-08 06:00:00 11.3 14 Oeste 24 Oeste 0 -- -- 81
2021-02-08 05:00:00 10.9 12 Oeste 23 Oeste 0 -- -- 81
2021-02-08 04:00:00 10.9 17 Oeste 26 Oeste 0 -- -- 82
2021-02-08 03:00:00 6.1 5 Oeste 10 Oeste 0 -- -- 84
2021-02-08 02:00:00 6.9 5 Este 10 Sudoeste 0 -- -- 81
2021-02-08 01:00:00 8.8 8 Oeste 17 Oeste 0 -- -- 74
2021-02-08 00:00:00 5.8 3 Noroeste 17 Oeste 0 -- -- 85
2021-02-07 23:00:00 4.7 6 Noroeste 9 Noroeste 0 -- -- 86
2021-02-07 22:00:00 5.4 6 Noroeste 10 Noroeste 0 -- -- 84
2021-02-07 21:00:00 6.3 6 Noroeste 8 Noroeste 0 -- -- 79
2021-02-07 20:00:00 7.2 5 Noroeste 10 Noroeste 0 -- -- 75
2021-02-07 19:00:00 8.7 6 Noroeste 14 Norte 0 -- -- 70
2021-02-07 18:00:00 11.3 10 Norte 29 Noroeste 0 -- -- 59
2021-02-07 17:00:00 13.3 11 Noroeste 24 Noroeste 0 -- -- 51
2021-02-07 16:00:00 14.4 16 Norte 27 Noroeste 0 -- -- 53
2021-02-07 15:00:00 14.5 15 Noroeste 33 Noroeste 0 -- -- 50
2021-02-07 14:00:00 15.2 16 Noroeste 30 Norte 0 -- -- 55
2021-02-07 13:00:00 13.9 18 Noroeste 29 Noroeste 0 -- -- 62
2021-02-07 12:00:00 14.6 18 Norte 26 Noroeste 0 -- -- 65
2021-02-07 11:00:00 15.2 2 Noroeste 12 Oeste 0 -- -- 73
2021-02-07 10:00:00 12.8 8 Oeste 14 Oeste 0 -- -- 85
2021-02-07 09:00:00 13.6 3 Noroeste 9 Oeste 0 -- -- 91
2021-02-07 08:00:00 10.9 4 Noroeste 19 Oeste 0 -- -- 94
2021-02-07 07:00:00 11.7 8 Oeste 26 Oeste 0 -- -- 94
2021-02-07 06:00:00 12.2 10 Oeste 20 Sudoeste 0 -- -- 94
2021-02-07 05:00:00 12.2 4 Noroeste 17 Noroeste 0 -- -- 94
2021-02-07 04:00:00 10.6 4 Este 12 Oeste 0 -- -- 93
2021-02-07 03:00:00 10.8 6 Oeste 14 Sur 0 -- -- 89
2021-02-07 02:00:00 11.9 3 Sudoeste 20 Sur 0 -- -- 86
2021-02-07 01:00:00 12.8 9 Sur 39 Oeste 0 -- -- 87
2021-02-07 00:00:00 12.9 19 Oeste 31 Oeste 0 -- -- 90
2021-02-06 23:00:00 13.1 19 Oeste 31 Sudoeste 0 -- -- 89
2021-02-06 22:00:00 13.1 11 Oeste 24 Oeste 0 -- -- 83
2021-02-06 21:00:00 13.6 6 Oeste 24 Oeste 0 -- -- 80
2021-02-06 20:00:00 13.7 8 Oeste 21 Oeste 0 -- -- 80
2021-02-06 19:00:00 14.5 11 Oeste 24 Oeste 0 -- -- 78
2021-02-06 18:00:00 15.8 13 Oeste 24 Oeste 0 -- -- 74
2021-02-06 17:00:00 17.3 15 Oeste 27 Oeste 0 -- -- 63
2021-02-06 16:00:00 18.6 14 Oeste 33 Oeste 0 -- -- 61
2021-02-06 15:00:00 20.1 19 Oeste 36 Oeste 0 -- -- 53
2021-02-06 14:00:00 19.8 15 Oeste 34 Oeste 0 -- -- 63
2021-02-06 13:00:00 18.5 19 Oeste 41 Oeste 0 -- -- 69
2021-02-06 12:00:00 19.4 17 Oeste 31 Oeste 0 -- -- 67
2021-02-06 11:00:00 18.4 10 Oeste 23 Oeste 0 -- -- 76
2021-02-06 10:00:00 16.4 12 Oeste 21 Oeste 0 -- -- 82
2021-02-06 09:00:00 16 13 Oeste 22 Oeste 0 -- -- 79
2021-02-06 08:00:00 16.1 8 Sudoeste 21 Sur 0 -- -- 69
2021-02-06 07:00:00 17.4 15 Sudoeste 30 Sudoeste 0 -- -- 64
2021-02-06 06:00:00 19.2 16 Sudoeste 48 Sur 0 -- -- 49
2021-02-06 05:00:00 19.4 18 Sudoeste 34 Sudoeste 0 -- -- 48
2021-02-06 04:00:00 19.5 16 Sudoeste 39 Sudoeste 0 -- -- 49
2021-02-06 03:00:00 20.2 21 Sudoeste 42 Sudoeste 0 -- -- 45
2021-02-06 02:00:00 20.3 18 Sudoeste 32 Sur 0 -- -- 47
2021-02-06 01:00:00 17.3 2 Este 9 Noroeste 0 -- -- 68
2021-02-06 00:00:00 13.5 3 Noroeste 9 Noroeste 0 -- -- 85
2021-02-05 23:00:00 13.1 6 Noroeste 10 Noroeste 0 -- -- 84
2021-02-05 22:00:00 13.7 2 Nordeste 14 Noroeste 0 -- -- 84
2021-02-05 21:00:00 12.5 4 Noroeste 10 Noroeste 0 -- -- 83
2021-02-05 20:00:00 12.8 7 Noroeste 13 Noroeste 0 -- -- 82
2021-02-05 19:00:00 13.4 5 Noroeste 9 Oeste 0 -- -- 85
2021-02-05 18:00:00 15.3 2 Noroeste 6 Sudeste 0 -- -- 80
2021-02-05 17:00:00 16.9 3 Sudeste 12 Sudeste 0 -- -- 75
2021-02-05 16:00:00 18.4 5 Sur 17 Este 0 -- -- 67
2021-02-05 15:00:00 19.9 6 Sudeste 15 Sudeste 0 -- -- 61
2021-02-05 14:00:00 20 8 Sudeste 17 Sudeste 0 -- -- 64
2021-02-05 13:00:00 18.8 10 Sudeste 15 Este 0 -- -- 69
2021-02-05 12:00:00 19.4 8 Sudeste 21 Sudeste 0 -- -- 67
2021-02-05 11:00:00 18.7 7 Sudeste 10 Sudeste 0 -- -- 70
2021-02-05 10:00:00 17.8 0 Calma 8 Noroeste 0 -- -- 83
2021-02-05 09:00:00 13.3 6 Noroeste 10 Noroeste 0 -- -- 94
2021-02-05 08:00:00 10.1 6 Noroeste 10 Noroeste 0 -- -- 97
2021-02-05 07:00:00 10.1 7 Noroeste 10 Noroeste 0 -- -- 96
2021-02-05 06:00:00 10.1 6 Noroeste 13 Noroeste 0 -- -- 96
2021-02-05 05:00:00 9.7 8 Noroeste 11 Noroeste 0 -- -- 97
2021-02-05 04:00:00 9.7 5 Noroeste 14 Noroeste 0 -- -- 97
2021-02-05 03:00:00 8.8 6 Noroeste 11 Noroeste 0 -- -- 97
2021-02-05 02:00:00 8.9 9 Noroeste 12 Noroeste 0 -- -- 96
2021-02-05 01:00:00 10 7 Noroeste 11 Oeste 0 -- -- 96
2021-02-05 00:00:00 10.2 8 Noroeste 12 Noroeste 0 -- -- 96
2021-02-04 23:00:00 10.8 5 Noroeste 11 Noroeste 0 -- -- 96
2021-02-04 22:00:00 12.5 5 Noroeste 8 Noroeste 0 -- -- 95
2021-02-04 21:00:00 12.2 0 Calma 6 Noroeste 0 -- -- 94
2021-02-04 20:00:00 11.2 4 Noroeste 8 Noroeste 0 -- -- 93
2021-02-04 19:00:00 11.6 2 Oeste 5 Sudeste 0 -- -- 92
2021-02-04 18:00:00 14 3 Sudeste 9 Sur 0 -- -- 88
2021-02-04 17:00:00 15.3 6 Sur 12 Sur 0 -- -- 84
2021-02-04 16:00:00 16.1 7 Sur 15 Sudeste 0 -- -- 79
2021-02-04 15:00:00 16.2 8 Sudeste 14 Sudeste 0 -- -- 79
2021-02-04 14:00:00 16.2 4 Sudeste 10 Sudoeste 0 -- -- 79
2021-02-04 13:00:00 14.3 3 Sur 9 Sur 0 -- -- 88
2021-02-04 12:00:00 12.6 6 Sudoeste 13 Sur 0 -- -- 93
2021-02-04 11:00:00 12.2 5 Sur 12 Oeste 0 -- -- 95
2021-02-04 10:00:00 11.3 6 Sudoeste 12 Sudoeste 0 -- -- 97
2021-02-04 09:00:00 9.5 3 Norte 7 Noroeste 0 -- -- 98
2021-02-04 08:00:00 8.6 2 Noroeste 6 Noroeste 0 -- -- 97
2021-02-04 07:00:00 9.5 4 Noroeste 8 Oeste 0 -- -- 96
2021-02-04 06:00:00 9.6 8 Oeste 15 Oeste 0 -- -- 96
2021-02-04 05:00:00 9.8 4 Noroeste 8 Noroeste 0 -- -- 96
2021-02-04 04:00:00 9 4 Noroeste 9 Noroeste 0 -- -- 96
2021-02-04 03:00:00 8.4 4 Noroeste 8 Oeste 0 -- -- 96
2021-02-04 02:00:00 8.7 3 Noroeste 8 Noroeste 0 -- -- 95
2021-02-04 01:00:00 9.6 5 Norte 8 Noroeste 0 -- -- 94
2021-02-04 00:00:00 10.4 6 Norte 12 Norte 0 -- -- 95